createdAt,value
2022-10-01T00:01:23.263Z,10.70
2022-10-01T00:03:50.435Z,10.51
2022-10-01T00:06:22.298Z,10.54
2022-10-01T00:08:50.738Z,10.55
2022-10-01T00:11:36.166Z,10.59
2022-10-01T00:14:04.499Z,10.67
2022-10-01T00:16:31.904Z,10.51
2022-10-01T00:19:00.353Z,10.53
2022-10-01T00:21:31.586Z,10.43
2022-10-01T00:24:04.727Z,10.55
2022-10-01T00:26:35.124Z,10.46
2022-10-01T00:29:07.835Z,10.35
2022-10-01T00:31:35.143Z,10.37
2022-10-01T00:34:03.332Z,10.55
2022-10-01T00:36:32.767Z,10.41
2022-10-01T00:39:00.778Z,10.30
2022-10-01T00:41:34.781Z,10.43
2022-10-01T00:44:28.414Z,10.37
2022-10-01T00:47:02.214Z,10.35
2022-10-01T00:49:31.243Z,10.25
2022-10-01T00:52:06.342Z,10.24
2022-10-01T00:55:11.897Z,10.17
2022-10-01T00:57:39.690Z,10.23
2022-10-01T01:00:10.017Z,10.31
2022-10-01T01:02:37.382Z,10.28
2022-10-01T01:05:06.679Z,10.28
2022-10-01T01:07:36.316Z,10.29
2022-10-01T01:10:05.081Z,10.36
2022-10-01T01:12:47.505Z,10.20
2022-10-01T01:15:38.537Z,10.22
2022-10-01T01:18:34.879Z,10.21
2022-10-01T01:21:08.621Z,10.22
2022-10-01T01:24:42.833Z,10.15
2022-10-01T01:27:16.186Z,10.12
2022-10-01T01:30:04.283Z,10.03
2022-10-01T01:32:49.943Z,10.08
2022-10-01T01:35:32.128Z,10.10
2022-10-01T01:38:09.281Z,10.11
2022-10-01T01:40:39.315Z,10.02
2022-10-01T01:43:17.449Z,10.07
2022-10-01T01:45:45.460Z,10.08
2022-10-01T01:48:13.654Z,10.24
2022-10-01T01:51:33.011Z,10.17
2022-10-01T01:54:00.477Z,10.09
2022-10-01T01:56:27.632Z,10.18
2022-10-01T01:58:54.539Z,10.32
2022-10-01T02:01:40.228Z,10.23
2022-10-01T02:04:23.512Z,10.24
2022-10-01T02:07:06.943Z,10.24
2022-10-01T02:09:57.530Z,10.19
2022-10-01T02:12:37.398Z,10.26
2022-10-01T02:15:28.901Z,10.27
2022-10-01T02:18:12.853Z,10.13
2022-10-01T02:20:47.333Z,10.19
2022-10-01T02:23:24.277Z,10.22
2022-10-01T02:25:57.872Z,10.37
2022-10-01T02:28:26.094Z,10.19
2022-10-01T02:30:55.991Z,10.11
2022-10-01T02:33:30.246Z,10.26
2022-10-01T02:36:00.243Z,10.31
2022-10-01T02:38:29.818Z,10.26
2022-10-01T02:41:01.015Z,10.06
2022-10-01T02:43:37.333Z,10.17
2022-10-01T02:46:27.790Z,10.22
2022-10-01T02:48:57.154Z,10.40
2022-10-01T02:51:53.663Z,10.32
2022-10-01T02:54:31.359Z,10.34
2022-10-01T02:57:17.474Z,10.30
2022-10-01T02:59:44.672Z,10.40
2022-10-01T03:02:12.882Z,10.25
2022-10-01T03:04:39.846Z,10.52
2022-10-01T03:07:07.960Z,10.48
2022-10-01T03:09:36.796Z,10.48
2022-10-01T03:12:04.036Z,10.62
2022-10-01T03:14:32.351Z,10.49
2022-10-01T03:16:59.256Z,10.74
2022-10-01T03:19:26.175Z,10.68
2022-10-01T03:21:53.116Z,10.78
2022-10-01T03:24:20.047Z,10.82
2022-10-01T03:26:46.989Z,10.78
2022-10-01T03:29:15.178Z,10.78
2022-10-01T03:31:42.110Z,10.75
2022-10-01T03:34:09.074Z,10.82
2022-10-01T03:36:36.006Z,10.77
2022-10-01T03:39:02.916Z,10.95
2022-10-01T03:41:29.894Z,10.88
2022-10-01T03:44:00.356Z,10.91
2022-10-01T03:46:27.644Z,10.96
2022-10-01T03:48:57.629Z,11.01
2022-10-01T03:51:24.644Z,11.04
2022-10-01T03:53:51.512Z,10.92
2022-10-01T03:56:18.749Z,10.94
2022-10-01T03:58:45.655Z,10.99
2022-10-01T04:01:12.637Z,11.00
2022-10-01T04:03:40.137Z,10.98
2022-10-01T04:06:07.584Z,10.87
2022-10-01T04:08:34.531Z,11.14
2022-10-01T04:11:01.518Z,11.11
2022-10-01T04:13:30.440Z,11.00
2022-10-01T04:15:57.399Z,10.99
2022-10-01T04:18:25.329Z,11.06
2022-10-01T04:20:52.256Z,11.05
2022-10-01T04:23:19.145Z,11.06
2022-10-01T04:25:46.062Z,10.89
2022-10-01T04:28:14.328Z,11.11
2022-10-01T04:30:44.902Z,11.04
2022-10-01T04:33:15.224Z,10.99
2022-10-01T04:35:46.156Z,10.93
2022-10-01T04:38:16.891Z,11.04
2022-10-01T04:40:44.263Z,11.02
2022-10-01T04:43:13.289Z,11.04
2022-10-01T04:45:40.235Z,10.98
2022-10-01T04:48:07.128Z,10.86
2022-10-01T04:50:34.133Z,11.07
2022-10-01T04:53:01.029Z,11.00
2022-10-01T04:55:28.092Z,10.90
2022-10-01T04:57:54.962Z,10.83
2022-10-01T05:00:25.827Z,11.00
2022-10-01T05:02:54.338Z,11.08
2022-10-01T05:05:24.386Z,10.95
2022-10-01T05:07:51.403Z,10.97
2022-10-01T05:10:21.443Z,10.96
2022-10-01T05:12:49.185Z,10.88
2022-10-01T05:15:17.662Z,10.94
2022-10-01T05:17:44.750Z,10.99
2022-10-01T05:20:24.042Z,10.92
2022-10-01T05:22:50.971Z,11.02
2022-10-01T05:25:19.430Z,11.07
2022-10-01T05:27:46.720Z,11.02
2022-10-01T05:30:20.104Z,11.03
2022-10-01T05:32:56.038Z,10.91
2022-10-01T05:35:24.405Z,10.99
2022-10-01T05:37:59.375Z,11.00
2022-10-01T05:40:28.657Z,10.87
2022-10-01T05:43:00.316Z,10.91
2022-10-01T05:45:30.020Z,11.09
2022-10-01T05:48:03.530Z,11.02
2022-10-01T05:50:34.003Z,10.97
2022-10-01T05:53:02.168Z,10.93
2022-10-01T05:55:34.616Z,10.75
2022-10-01T05:58:11.337Z,10.84
2022-10-01T06:00:40.427Z,10.84
2022-10-01T06:03:08.663Z,10.87
2022-10-01T06:05:36.631Z,10.78
2022-10-01T06:08:07.154Z,10.87
2022-10-01T06:10:35.026Z,10.75
2022-10-01T06:13:05.687Z,10.81
2022-10-01T06:15:38.916Z,10.84
2022-10-01T06:18:13.643Z,10.82
2022-10-01T06:20:41.895Z,10.77
2022-10-01T06:23:12.952Z,10.78
2022-10-01T06:25:44.062Z,10.85
2022-10-01T06:28:13.967Z,10.90
2022-10-01T06:30:41.098Z,10.94
2022-10-01T06:33:14.475Z,10.99
2022-10-01T06:35:50.648Z,10.88
2022-10-01T06:38:21.375Z,11.11
2022-10-01T06:40:57.182Z,11.18
2022-10-01T06:43:26.732Z,11.06
2022-10-01T06:45:54.403Z,11.10
2022-10-01T06:48:23.394Z,11.02
2022-10-01T06:50:56.371Z,11.13
2022-10-01T06:53:24.647Z,11.15
2022-10-01T06:55:51.535Z,11.22
2022-10-01T06:58:22.350Z,11.16
2022-10-01T07:00:50.357Z,11.17
2022-10-01T07:03:22.388Z,11.30
2022-10-01T07:05:50.520Z,11.21
2022-10-01T07:08:18.255Z,11.27
2022-10-01T07:10:46.142Z,11.32
2022-10-01T07:13:20.497Z,11.24
2022-10-01T07:15:48.454Z,11.28
2022-10-01T07:18:15.491Z,11.21
2022-10-01T07:20:42.489Z,11.30
2022-10-01T07:23:14.721Z,11.15
2022-10-01T07:25:42.902Z,11.34
2022-10-01T07:28:17.832Z,11.22
2022-10-01T07:31:04.999Z,11.16
2022-10-01T07:33:31.977Z,11.17
2022-10-01T07:36:08.371Z,11.19
2022-10-01T07:38:35.862Z,11.22
2022-10-01T07:41:03.379Z,11.29
2022-10-01T07:43:32.198Z,11.35
2022-10-01T07:46:00.348Z,11.34
2022-10-01T07:48:28.043Z,11.33
2022-10-01T07:50:54.973Z,11.40
2022-10-01T07:53:24.279Z,11.20
2022-10-01T07:55:52.259Z,11.22
2022-10-01T07:58:23.756Z,11.25
2022-10-01T08:00:55.930Z,11.20
2022-10-01T08:03:23.019Z,11.42
2022-10-01T08:05:49.948Z,11.27
2022-10-01T08:08:16.828Z,11.26
2022-10-01T08:10:43.817Z,11.25
2022-10-01T08:13:17.455Z,11.28
2022-10-01T08:15:47.419Z,11.34
2022-10-01T08:18:14.718Z,11.37
2022-10-01T08:20:41.920Z,11.37
2022-10-01T08:23:15.539Z,11.33
2022-10-01T08:25:45.207Z,11.32
2022-10-01T08:28:12.634Z,11.33
2022-10-01T08:30:41.794Z,11.33
2022-10-01T08:33:14.260Z,11.33
2022-10-01T08:35:43.609Z,11.37
2022-10-01T08:38:12.359Z,11.41
2022-10-01T08:40:47.656Z,11.48
2022-10-01T08:43:38.381Z,11.42
2022-10-01T08:46:14.142Z,11.29
2022-10-01T08:48:47.241Z,11.29
2022-10-01T08:51:52.442Z,11.27
2022-10-01T08:54:48.389Z,11.28
2022-10-01T08:57:24.239Z,11.35
2022-10-01T08:59:59.548Z,11.45
2022-10-01T09:02:35.858Z,11.42
2022-10-01T09:05:43.648Z,11.42
2022-10-01T09:08:44.903Z,11.38
2022-10-01T09:11:47.043Z,11.26
2022-10-01T09:14:32.792Z,11.38
2022-10-01T09:17:08.557Z,11.36
2022-10-01T09:20:27.598Z,11.32
2022-10-01T09:23:20.125Z,11.28
2022-10-01T09:25:50.650Z,11.29
2022-10-01T09:28:25.173Z,11.38
2022-10-01T09:31:37.411Z,11.30
2022-10-01T09:34:29.939Z,11.33
2022-10-01T09:37:23.999Z,11.45
2022-10-01T09:40:19.851Z,11.41
2022-10-01T09:42:48.082Z,11.54
2022-10-01T09:45:18.638Z,11.47
2022-10-01T09:47:55.351Z,11.61
2022-10-01T09:50:43.275Z,11.74
2022-10-01T09:53:22.570Z,11.84
2022-10-01T09:56:25.881Z,11.91
2022-10-01T09:59:00.430Z,11.90
2022-10-01T10:01:46.273Z,11.97
2022-10-01T10:04:20.977Z,12.01
2022-10-01T10:06:48.386Z,12.05
2022-10-01T10:09:18.702Z,11.92
2022-10-01T10:11:45.956Z,12.05
2022-10-01T10:14:29.804Z,12.21
2022-10-01T10:17:06.540Z,12.16
2022-10-01T10:19:34.056Z,12.11
2022-10-01T10:22:25.406Z,12.15
2022-10-01T10:24:54.999Z,12.19
2022-10-01T10:27:30.350Z,12.05
2022-10-01T10:30:16.280Z,12.14
2022-10-01T10:32:45.594Z,12.10
2022-10-01T10:35:21.623Z,12.08
2022-10-01T10:37:53.541Z,12.11
2022-10-01T10:40:29.766Z,12.10
2022-10-01T10:42:59.550Z,12.11
2022-10-01T10:45:38.778Z,12.01
2022-10-01T10:48:13.291Z,12.09
2022-10-01T10:50:44.640Z,12.14
2022-10-01T10:53:25.215Z,12.03
2022-10-01T10:56:01.108Z,12.14
2022-10-01T10:58:34.231Z,12.14
2022-10-01T11:01:11.364Z,12.23
2022-10-01T11:03:46.389Z,12.18
2022-10-01T11:06:15.387Z,12.27
2022-10-01T11:08:45.959Z,12.36
2022-10-01T11:11:51.448Z,12.33
2022-10-01T11:14:35.923Z,12.29
2022-10-01T11:17:31.027Z,12.43
2022-10-01T11:20:04.474Z,12.43
2022-10-01T11:22:39.767Z,12.60
2022-10-01T11:25:59.372Z,12.44
2022-10-01T11:28:57.588Z,12.45
2022-10-01T11:31:47.579Z,12.48
2022-10-01T11:35:07.747Z,12.48
2022-10-01T11:38:37.891Z,12.71
2022-10-01T11:41:30.758Z,12.72
2022-10-01T11:44:11.250Z,12.79
2022-10-01T11:47:15.801Z,12.81
2022-10-01T11:49:56.402Z,12.92
2022-10-01T11:52:52.811Z,13.01
2022-10-01T11:55:46.140Z,13.06
2022-10-01T11:58:54.143Z,13.11
2022-10-01T12:01:24.340Z,13.16
2022-10-01T12:03:54.278Z,13.20
2022-10-01T12:06:34.603Z,13.22
2022-10-01T12:09:26.209Z,13.13
2022-10-01T12:12:06.761Z,13.15
2022-10-01T12:15:06.981Z,13.30
2022-10-01T12:18:00.889Z,13.33
2022-10-01T12:20:34.347Z,13.46
2022-10-01T12:23:05.923Z,13.39
2022-10-01T12:26:04.330Z,13.58
2022-10-01T12:28:44.955Z,13.64
2022-10-01T12:31:54.951Z,13.69
2022-10-01T12:34:34.113Z,13.72
2022-10-01T12:37:33.212Z,13.96
2022-10-01T12:40:26.605Z,13.83
2022-10-01T12:43:39.034Z,14.07
2022-10-01T12:46:27.440Z,14.17
2022-10-01T12:49:07.626Z,14.31
2022-10-01T12:51:40.534Z,14.68
2022-10-01T12:55:07.401Z,14.97
2022-10-01T12:57:52.753Z,14.85
2022-10-01T13:00:26.421Z,14.84
2022-10-01T13:03:18.883Z,14.71
2022-10-01T13:06:23.820Z,14.77
2022-10-01T13:09:13.864Z,14.59
2022-10-01T13:12:48.154Z,14.66
2022-10-01T13:15:24.117Z,15.01
2022-10-01T13:18:32.910Z,15.05
2022-10-01T13:21:49.903Z,15.23
2022-10-01T13:24:37.947Z,15.42
2022-10-01T13:27:17.931Z,15.48
2022-10-01T13:30:16.674Z,15.43
2022-10-01T13:32:58.402Z,15.42
2022-10-01T13:35:35.863Z,15.44
2022-10-01T13:38:31.313Z,15.61
2022-10-01T13:41:05.382Z,15.69
2022-10-01T13:43:34.513Z,15.70
2022-10-01T13:46:10.586Z,15.51
2022-10-01T13:48:46.033Z,15.49
2022-10-01T13:51:15.590Z,15.69
2022-10-01T13:53:42.490Z,15.90
2022-10-01T13:56:14.389Z,16.06
2022-10-01T13:58:46.439Z,15.89
2022-10-01T14:01:21.318Z,15.83
2022-10-01T14:04:05.770Z,15.84
2022-10-01T14:06:35.980Z,15.86
2022-10-01T14:09:27.558Z,15.64
2022-10-01T14:12:24.484Z,15.62
2022-10-01T14:15:14.270Z,15.61
2022-10-01T14:17:43.793Z,15.62
2022-10-01T14:20:23.643Z,15.65
2022-10-01T14:23:13.500Z,15.76
2022-10-01T14:25:53.660Z,15.76
2022-10-01T14:28:35.669Z,15.83
2022-10-01T14:31:36.844Z,15.85
2022-10-01T14:34:12.539Z,15.85
2022-10-01T14:36:52.392Z,15.69
2022-10-01T14:39:28.690Z,15.71
2022-10-01T14:41:57.896Z,15.72
2022-10-01T14:44:41.731Z,15.82
2022-10-01T14:47:22.908Z,15.75
2022-10-01T14:49:51.305Z,15.73
2022-10-01T14:52:32.077Z,15.73
2022-10-01T14:55:14.043Z,15.89
2022-10-01T14:57:46.306Z,15.73
2022-10-01T15:00:20.452Z,15.75
2022-10-01T15:03:01.897Z,15.71
2022-10-01T15:05:33.888Z,15.77
2022-10-01T15:08:38.016Z,15.83
2022-10-01T15:11:12.049Z,15.82
2022-10-01T15:13:45.403Z,15.73
2022-10-01T15:16:23.083Z,15.86
2022-10-01T15:19:02.097Z,15.88
2022-10-01T15:21:51.065Z,15.96
2022-10-01T15:24:44.398Z,15.71
2022-10-01T15:27:14.176Z,15.62
2022-10-01T15:29:42.883Z,15.68
2022-10-01T15:32:17.256Z,15.73
2022-10-01T15:34:51.637Z,15.72
2022-10-01T15:37:32.158Z,15.67
2022-10-01T15:40:00.750Z,15.65
2022-10-01T15:42:34.528Z,15.69
2022-10-01T15:45:07.634Z,15.68
2022-10-01T15:47:39.804Z,15.65
2022-10-01T15:50:12.634Z,15.70
2022-10-01T15:52:52.256Z,15.74
2022-10-01T15:55:52.342Z,15.63
2022-10-01T15:58:32.303Z,15.60
2022-10-01T16:01:18.778Z,15.66
2022-10-01T16:03:55.851Z,15.54
2022-10-01T16:06:25.260Z,15.65
2022-10-01T16:09:24.329Z,15.63
2022-10-01T16:12:18.302Z,15.57
2022-10-01T16:15:00.962Z,15.69
2022-10-01T16:17:37.237Z,15.54
2022-10-01T16:20:16.294Z,15.59
2022-10-01T16:22:43.560Z,15.66
2022-10-01T16:25:44.106Z,15.54
2022-10-01T16:28:31.155Z,15.58
2022-10-01T16:30:58.281Z,15.48
2022-10-01T16:33:26.665Z,15.35
2022-10-01T16:36:09.627Z,15.56
2022-10-01T16:38:36.799Z,15.52
2022-10-01T16:41:05.354Z,15.34
2022-10-01T16:43:32.483Z,15.39
2022-10-01T16:45:59.477Z,15.33
2022-10-01T16:48:26.734Z,15.32
2022-10-01T16:50:53.955Z,15.53
2022-10-01T16:53:20.920Z,15.41
2022-10-01T16:55:48.007Z,15.34
2022-10-01T16:58:15.703Z,15.34
2022-10-01T17:00:42.900Z,15.27
2022-10-01T17:03:17.983Z,15.34
2022-10-01T17:05:46.516Z,15.31
2022-10-01T17:08:15.130Z,15.41
2022-10-01T17:10:45.077Z,15.11
2022-10-01T17:13:13.448Z,15.10
2022-10-01T17:15:42.364Z,15.15
2022-10-01T17:18:09.855Z,15.13
2022-10-01T17:20:39.903Z,15.19
2022-10-01T17:23:07.396Z,15.19
2022-10-01T17:25:38.242Z,15.16
2022-10-01T17:28:08.364Z,14.88
2022-10-01T17:30:40.222Z,14.99
2022-10-01T17:33:08.892Z,14.89
2022-10-01T17:35:40.519Z,15.01
2022-10-01T17:38:07.597Z,14.90
2022-10-01T17:40:34.892Z,14.88
2022-10-01T17:43:01.795Z,14.89
2022-10-01T17:45:28.759Z,14.87
2022-10-01T17:47:56.575Z,14.88
2022-10-01T17:50:24.327Z,14.86
2022-10-01T17:52:51.335Z,14.90
2022-10-01T17:55:19.831Z,14.85
2022-10-01T17:57:46.795Z,14.87
2022-10-01T18:00:13.805Z,14.84
2022-10-01T18:02:42.945Z,14.83
2022-10-01T18:05:14.422Z,14.80
2022-10-01T18:07:42.236Z,14.73
2022-10-01T18:10:13.027Z,14.90
2022-10-01T18:12:40.869Z,14.86
2022-10-01T18:15:08.631Z,14.85
2022-10-01T18:17:43.023Z,14.86
2022-10-01T18:20:10.583Z,14.77
2022-10-01T18:22:38.089Z,14.85
2022-10-01T18:25:06.994Z,14.88
2022-10-01T18:27:33.967Z,14.83
2022-10-01T18:30:01.702Z,14.77
2022-10-01T18:32:37.664Z,14.80
2022-10-01T18:35:17.169Z,14.78
2022-10-01T18:37:53.656Z,14.80
2022-10-01T18:40:35.791Z,14.81
2022-10-01T18:43:14.424Z,14.76
2022-10-01T18:46:26.905Z,14.68
2022-10-01T18:49:38.444Z,14.69
2022-10-01T18:52:22.595Z,14.76
2022-10-01T18:55:36.087Z,14.69
2022-10-01T18:58:35.910Z,14.65
2022-10-01T19:01:23.277Z,14.66
2022-10-01T19:04:05.054Z,14.72
2022-10-01T19:07:01.632Z,14.72
2022-10-01T19:09:44.579Z,14.71
2022-10-01T19:12:35.726Z,14.70
2022-10-01T19:15:37.898Z,14.74
2022-10-01T19:18:15.776Z,14.75
2022-10-01T19:21:19.850Z,14.78
2022-10-01T19:24:14.308Z,14.63
2022-10-01T19:26:44.250Z,14.69
2022-10-01T19:30:06.704Z,14.63
2022-10-01T19:32:48.279Z,14.71
2022-10-01T19:35:17.613Z,14.61
2022-10-01T19:37:52.349Z,14.60
2022-10-01T19:40:54.302Z,14.69
2022-10-01T19:43:44.440Z,14.80
2022-10-01T19:46:26.799Z,14.72
2022-10-01T19:49:06.204Z,14.63
2022-10-01T19:51:41.224Z,14.66
2022-10-01T19:54:38.604Z,14.61
2022-10-01T19:57:21.656Z,14.59
2022-10-01T19:59:49.280Z,14.64
2022-10-01T20:02:42.422Z,14.58
2022-10-01T20:05:16.482Z,14.55
2022-10-01T20:08:05.655Z,14.41
2022-10-01T20:10:54.350Z,14.56
2022-10-01T20:13:56.296Z,14.51
2022-10-01T20:16:47.142Z,14.50
2022-10-01T20:19:27.695Z,14.50
2022-10-01T20:22:07.763Z,14.55
2022-10-01T20:24:46.731Z,14.46
2022-10-01T20:27:49.325Z,14.56
2022-10-01T20:30:21.860Z,14.38
2022-10-01T20:33:10.742Z,14.59
2022-10-01T20:35:53.359Z,14.63
2022-10-01T20:38:25.309Z,14.59
2022-10-01T20:41:00.666Z,14.62
2022-10-01T20:43:48.151Z,14.39
2022-10-01T20:46:36.347Z,14.31
2022-10-01T20:49:15.595Z,14.31
2022-10-01T20:51:58.448Z,14.52
2022-10-01T20:54:36.807Z,14.55
2022-10-01T20:57:27.881Z,14.55
2022-10-01T20:59:58.896Z,14.56
2022-10-01T21:02:44.513Z,14.50
2022-10-01T21:05:41.279Z,14.52
2022-10-01T21:08:32.619Z,14.65
2022-10-01T21:11:09.282Z,14.69
2022-10-01T21:13:49.343Z,14.85
2022-10-01T21:16:51.325Z,14.50
2022-10-01T21:20:12.216Z,14.40
2022-10-01T21:23:30.186Z,14.32
2022-10-01T21:26:25.477Z,14.39
2022-10-01T21:29:27.547Z,14.31
2022-10-01T21:32:49.844Z,14.30
2022-10-01T21:35:51.940Z,14.35
2022-10-01T21:38:40.423Z,14.47
2022-10-01T21:41:40.047Z,14.33
2022-10-01T21:44:31.925Z,14.56
2022-10-01T21:47:40.736Z,14.58
2022-10-01T21:50:44.684Z,14.53
2022-10-01T21:53:45.269Z,14.41
2022-10-01T21:56:54.983Z,14.34
2022-10-01T22:00:13.223Z,14.24
2022-10-01T22:03:19.682Z,14.13
2022-10-01T22:06:01.259Z,14.32
2022-10-01T22:08:49.004Z,14.27
2022-10-01T22:11:33.015Z,14.32
2022-10-01T22:14:04.475Z,14.23
2022-10-01T22:16:40.945Z,14.22
2022-10-01T22:19:15.404Z,14.10
2022-10-01T22:21:50.677Z,14.14
2022-10-01T22:24:46.045Z,14.12
2022-10-01T22:27:28.661Z,14.17
2022-10-01T22:30:12.751Z,14.12
2022-10-01T22:32:53.582Z,14.33
2022-10-01T22:35:26.935Z,14.24
2022-10-01T22:38:05.652Z,14.27
2022-10-01T22:41:17.710Z,14.26
2022-10-01T22:43:45.728Z,14.37
2022-10-01T22:47:02.953Z,14.31
2022-10-01T22:50:10.947Z,14.31
2022-10-01T22:53:12.573Z,14.37
2022-10-01T22:55:55.022Z,14.43
2022-10-01T22:58:36.942Z,14.56
2022-10-01T23:01:39.003Z,14.46
2022-10-01T23:04:24.876Z,14.16
2022-10-01T23:07:00.323Z,14.23
2022-10-01T23:09:55.407Z,14.31
2022-10-01T23:13:03.998Z,14.46
2022-10-01T23:16:19.693Z,14.38
2022-10-01T23:19:40.242Z,14.29
2022-10-01T23:22:13.196Z,14.36
2022-10-01T23:25:14.050Z,14.70
2022-10-01T23:28:02.812Z,14.74
2022-10-01T23:31:10.922Z,14.55
2022-10-01T23:34:18.276Z,14.60
2022-10-01T23:37:26.735Z,14.53
2022-10-01T23:40:01.635Z,14.56
2022-10-01T23:43:06.200Z,14.56
2022-10-01T23:45:49.498Z,14.46
2022-10-01T23:48:40.533Z,14.62
2022-10-01T23:51:32.646Z,14.52
2022-10-01T23:54:13.067Z,14.46
2022-10-01T23:56:48.708Z,14.45
2022-10-01T23:59:41.654Z,14.51
